Time;durP1;ratioP1;P1;durP2;ratioP2;P2;SDS_P1;SDS_P2;PMS_P1;PMS_P2;Temp;Humidity;BMP_temperature;BMP_pressure;BME280_temperature;BME280_humidity;BME280_pressure;Samples;Min_cycle;Max_cycle;Signal;HPM_P1;HPM_P2
2020/12/19 00:01:29;;;;;;;15.47;10.90;;;4.50;99.90;;;;;;10009407;29;20231;-85
2020/12/19 00:06:50;;;;;;;14.67;10.53;;;4.70;99.90;;;;;;10012899;29;20221;-85
2020/12/19 00:12:12;;;;;;;15.43;10.10;;;4.50;99.90;;;;;;10009321;29;20285;-85
2020/12/19 00:17:35;;;;;;;15.53;11.50;;;4.50;99.90;;;;;;9999077;29;20236;-85
2020/12/19 00:22:56;;;;;;;15.13;11.70;;;4.50;99.90;;;;;;9989327;29;20225;-85
2020/12/19 00:28:18;;;;;;;17.53;11.97;;;4.60;99.90;;;;;;9990138;29;20262;-84
2020/12/19 00:33:40;;;;;;;15.97;11.83;;;4.50;99.90;;;;;;9987195;29;20592;-85
2020/12/19 00:39:03;;;;;;;16.87;10.87;;;4.50;99.90;;;;;;9983799;29;20212;-84
2020/12/19 00:44:25;;;;;;;18.80;12.13;;;4.30;99.90;;;;;;9953442;29;20221;-84
2020/12/19 00:49:48;;;;;;;17.17;11.50;;;4.40;99.90;;;;;;9952081;29;20194;-84
2020/12/19 00:55:09;;;;;;;16.50;12.10;;;4.40;99.90;;;;;;9986037;29;20259;-86
2020/12/19 01:00:31;;;;;;;20.17;13.60;;;4.50;99.90;;;;;;9988814;29;20305;-84
2020/12/19 01:05:54;;;;;;;17.63;13.10;;;4.40;99.90;;;;;;9987942;29;20200;-85
2020/12/19 01:11:16;;;;;;;19.80;13.90;;;4.30;99.90;;;;;;9991601;29;20221;-85
2020/12/19 01:16:38;;;;;;;23.87;14.90;;;4.40;99.90;;;;;;9988517;29;20225;-85
2020/12/19 01:22:01;;;;;;;20.20;14.17;;;4.40;99.90;;;;;;10025528;29;20220;-84
2020/12/19 01:27:22;;;;;;;19.20;13.77;;;4.50;99.90;;;;;;10052175;29;20300;-84
2020/12/19 01:32:44;;;;;;;22.57;15.33;;;4.40;99.90;;;;;;10027549;29;20220;-86
2020/12/19 01:38:06;;;;;;;21.73;14.30;;;4.30;99.90;;;;;;10018806;29;20253;-84
2020/12/19 01:43:43;;;;;;;20.63;13.77;;;4.30;99.90;;;;;;9991424;29;20228;-85
2020/12/19 01:49:05;;;;;;;22.43;14.27;;;4.30;99.90;;;;;;9989459;29;20354;-85
2020/12/19 01:54:29;;;;;;;23.30;15.77;;;4.20;99.90;;;;;;9958349;29;20255;-86
2020/12/19 01:59:51;;;;;;;21.20;13.90;;;4.20;99.90;;;;;;9951206;29;20688;-84
2020/12/19 02:05:13;;;;;;;21.33;14.73;;;4.10;99.90;;;;;;10019216;29;20209;-85
2020/12/19 02:10:36;;;;;;;24.70;15.87;;;4.10;99.90;;;;;;9993098;29;20228;-84
2020/12/19 02:15:58;;;;;;;22.27;15.30;;;4.10;99.90;;;;;;9986694;29;20217;-85
2020/12/19 02:21:19;;;;;;;25.03;17.07;;;4.10;99.90;;;;;;10020834;29;20738;-86
2020/12/19 02:26:46;;;;;;;21.77;14.70;;;4.10;99.90;;;;;;10022162;29;20196;-83
2020/12/19 02:32:08;;;;;;;27.50;16.00;;;4.00;99.90;;;;;;10024394;29;20271;-84
2020/12/19 02:37:30;;;;;;;23.40;14.97;;;4.00;99.90;;;;;;10007502;29;20209;-83
2020/12/19 02:42:52;;;;;;;25.27;16.13;;;4.00;99.90;;;;;;9984935;29;20228;-85
2020/12/19 02:48:14;;;;;;;24.87;15.93;;;3.90;99.90;;;;;;9985487;29;20205;-84
2020/12/19 02:53:35;;;;;;;26.40;17.80;;;3.90;99.90;;;;;;9985565;29;20236;-84
2020/12/19 02:58:58;;;;;;;23.23;15.07;;;4.00;99.90;;;;;;9988069;29;20258;-84
2020/12/19 03:04:20;;;;;;;23.70;16.37;;;3.90;99.90;;;;;;9986602;29;20220;-82
2020/12/19 03:09:41;;;;;;;26.80;16.57;;;3.90;99.90;;;;;;9988572;29;20204;-85
2020/12/19 03:15:04;;;;;;;23.70;16.90;;;3.90;99.90;;;;;;9985550;29;20227;-85
2020/12/19 03:20:26;;;;;;;23.57;15.13;;;3.80;99.90;;;;;;10026816;29;20215;-84
2020/12/19 03:25:49;;;;;;;29.27;17.30;;;3.70;99.90;;;;;;10035342;29;20208;-83
2020/12/19 03:31:12;;;;;;;27.53;17.23;;;3.90;99.90;;;;;;10035381;29;20298;-85
2020/12/19 03:36:34;;;;;;;25.63;16.67;;;3.80;99.90;;;;;;10030631;29;20220;-85
2020/12/19 03:41:55;;;;;;;27.87;17.53;;;4.10;99.90;;;;;;9999078;29;20232;-84
2020/12/19 03:47:18;;;;;;;29.87;17.53;;;4.00;99.90;;;;;;9996681;29;20300;-85
2020/12/19 03:52:40;;;;;;;28.87;17.67;;;3.90;99.90;;;;;;9998983;29;20307;-85
2020/12/19 03:58:01;;;;;;;28.60;17.20;;;4.00;99.90;;;;;;9996791;29;20208;-82
2020/12/19 04:03:24;;;;;;;30.77;17.70;;;3.90;99.90;;;;;;10006000;29;20221;-84
2020/12/19 04:08:45;;;;;;;27.43;17.00;;;4.00;99.90;;;;;;10017057;29;20200;-83
2020/12/19 04:14:07;;;;;;;28.50;17.33;;;4.00;99.90;;;;;;10009651;29;20227;-85
2020/12/19 04:19:29;;;;;;;28.50;17.10;;;4.00;99.90;;;;;;9999364;29;20242;-83
2020/12/19 04:24:52;;;;;;;27.40;17.47;;;4.00;99.90;;;;;;9996483;29;20220;-85
2020/12/19 04:30:13;;;;;;;29.10;17.07;;;4.00;99.90;;;;;;9988205;29;20232;-84
2020/12/19 04:35:36;;;;;;;26.13;16.90;;;4.00;99.90;;;;;;9986701;29;20666;-85
2020/12/19 04:40:59;;;;;;;30.17;16.73;;;4.00;99.90;;;;;;10004606;29;20243;-85
2020/12/19 04:46:22;;;;;;;26.67;17.20;;;4.00;99.90;;;;;;10028248;29;20225;-84
2020/12/19 04:51:46;;;;;;;27.30;16.63;;;4.00;99.90;;;;;;10020630;29;20284;-87
2020/12/19 04:57:17;;;;;;;22.97;14.83;;;4.10;99.90;;;;;;10017891;29;20692;-85
2020/12/19 05:02:39;;;;;;;25.77;15.80;;;4.00;99.90;;;;;;10015819;29;20228;-85
2020/12/19 05:08:01;;;;;;;24.00;15.70;;;4.00;99.90;;;;;;9991039;29;20680;-84
2020/12/19 05:13:23;;;;;;;27.40;16.53;;;4.10;99.90;;;;;;9990729;29;20224;-84
2020/12/19 05:18:45;;;;;;;26.30;16.40;;;4.10;99.90;;;;;;10006258;29;20203;-85
2020/12/19 05:24:08;;;;;;;24.13;15.60;;;4.10;99.90;;;;;;10027616;29;20213;-84
2020/12/19 05:29:32;;;;;;;28.23;16.00;;;4.20;99.90;;;;;;10027241;29;20212;-84
2020/12/19 05:34:54;;;;;;;24.13;16.30;;;4.20;99.90;;;;;;10028795;29;20227;-84
2020/12/19 05:40:17;;;;;;;21.90;15.33;;;4.10;99.90;;;;;;9969196;29;20280;-85
2020/12/19 05:45:38;;;;;;;25.77;16.30;;;4.20;99.90;;;;;;9969974;29;20281;-85
2020/12/19 05:51:01;;;;;;;27.17;16.43;;;4.20;99.90;;;;;;9977650;29;20209;-83
2020/12/19 05:56:24;;;;;;;24.40;15.77;;;4.20;99.90;;;;;;10012843;29;20217;-83
2020/12/19 06:01:47;;;;;;;27.13;16.63;;;4.20;99.90;;;;;;10011000;29;20232;-86
2020/12/19 06:07:10;;;;;;;27.37;17.40;;;4.10;99.90;;;;;;10008883;29;20198;-83
2020/12/19 06:12:53;;;;;;;26.60;16.70;;;4.00;99.90;;;;;;10013105;29;20239;-84
2020/12/19 06:18:26;;;;;;;24.90;15.37;;;4.10;99.90;;;;;;10010933;29;20264;-85
2020/12/19 06:23:48;;;;;;;26.63;16.73;;;4.00;99.90;;;;;;10010837;29;20225;-85
2020/12/19 06:29:11;;;;;;;23.80;15.50;;;4.00;99.90;;;;;;10009337;29;20209;-83
2020/12/19 06:34:33;;;;;;;25.63;16.50;;;4.00;99.90;;;;;;10010493;29;20232;-83
2020/12/19 06:40:11;;;;;;;23.80;15.67;;;4.00;99.90;;;;;;9997472;29;20268;-85
2020/12/19 06:45:35;;;;;;;25.20;15.67;;;4.00;99.90;;;;;;9988790;29;20200;-84
2020/12/19 06:50:58;;;;;;;26.20;16.87;;;4.00;99.90;;;;;;9990122;29;20229;-84
2020/12/19 06:56:27;;;;;;;26.13;16.37;;;4.00;99.90;;;;;;9997367;29;20257;-84
2020/12/19 07:01:50;;;;;;;24.63;15.53;;;4.00;99.90;;;;;;10004105;29;20708;-86
2020/12/19 07:07:14;;;;;;;21.97;14.93;;;3.90;99.90;;;;;;10001015;29;20583;-85
2020/12/19 07:13:08;;;;;;;27.77;15.77;;;3.90;99.90;;;;;;9992655;29;20285;-86
2020/12/19 07:18:32;;;;;;;23.33;16.00;;;3.90;99.90;;;;;;10008389;29;20209;-85
2020/12/19 07:23:56;;;;;;;23.23;15.77;;;4.00;99.90;;;;;;10059240;29;20690;-85
2020/12/19 07:29:20;;;;;;;26.53;15.97;;;4.00;99.90;;;;;;10034854;29;20237;-83
2020/12/19 07:34:43;;;;;;;24.47;16.53;;;4.00;99.90;;;;;;10033918;29;20224;-84
2020/12/19 07:40:06;;;;;;;27.00;16.33;;;3.90;99.90;;;;;;10044563;29;20271;-83
2020/12/19 07:45:28;;;;;;;28.27;17.17;;;3.90;99.90;;;;;;9966037;29;20194;-81
2020/12/19 07:50:51;;;;;;;26.40;16.63;;;3.90;99.90;;;;;;9959796;29;20209;-84
2020/12/19 07:56:13;;;;;;;27.57;17.43;;;3.90;99.90;;;;;;9993740;29;20224;-81
2020/12/19 08:01:38;;;;;;;26.53;16.43;;;3.90;99.90;;;;;;9990390;29;20229;-83
2020/12/19 08:07:01;;;;;;;22.80;15.73;;;4.00;99.90;;;;;;9998437;29;20205;-83
2020/12/19 08:12:23;;;;;;;27.67;16.93;;;4.10;99.90;;;;;;9998335;29;20285;-80
2020/12/19 08:17:48;;;;;;;24.37;15.83;;;4.10;99.90;;;;;;10003442;29;20227;-80
2020/12/19 08:23:11;;;;;;;25.10;16.50;;;4.20;99.90;;;;;;10037640;29;20229;-83
2020/12/19 08:28:33;;;;;;;23.20;16.10;;;4.30;99.90;;;;;;10035215;29;20244;-83
2020/12/19 08:33:57;;;;;;;23.03;15.47;;;4.30;99.90;;;;;;10036501;29;20257;-86
2020/12/19 08:39:19;;;;;;;23.10;16.10;;;4.50;99.90;;;;;;10055479;29;20242;-85
2020/12/19 08:44:41;;;;;;;24.53;15.53;;;4.60;99.90;;;;;;10042630;29;20231;-84
2020/12/19 08:50:03;;;;;;;26.97;17.13;;;4.70;99.90;;;;;;9997598;29;20228;-83
2020/12/19 08:55:25;;;;;;;25.40;16.37;;;4.80;99.90;;;;;;9992940;29;20221;-83
2020/12/19 09:00:47;;;;;;;25.80;16.10;;;4.90;99.90;;;;;;9996342;29;20229;-85
2020/12/19 09:06:10;;;;;;;23.50;16.10;;;5.20;99.90;;;;;;10000632;29;20201;-86
2020/12/19 09:11:33;;;;;;;28.97;17.17;;;5.10;99.90;;;;;;9990667;29;20217;-81
2020/12/19 09:16:55;;;;;;;28.87;17.60;;;5.30;99.90;;;;;;9988839;29;20213;-82
2020/12/19 09:22:23;;;;;;;26.00;15.53;;;5.40;99.90;;;;;;10025601;29;20746;-79
2020/12/19 09:27:46;;;;;;;22.07;14.73;;;5.50;99.90;;;;;;10027977;29;20200;-82
2020/12/19 09:33:08;;;;;;;23.80;14.97;;;5.60;99.90;;;;;;10007861;29;20221;-84
2020/12/19 09:38:31;;;;;;;24.07;14.60;;;5.70;99.90;;;;;;10002546;29;20284;-88
2020/12/19 09:43:53;;;;;;;19.60;13.33;;;5.80;99.90;;;;;;9995222;29;20233;-83
2020/12/19 09:49:15;;;;;;;21.37;14.20;;;5.90;99.90;;;;;;9993961;29;20205;-84
2020/12/19 09:54:37;;;;;;;20.77;14.07;;;6.00;99.90;;;;;;9994780;29;20229;-82
2020/12/19 09:59:59;;;;;;;21.00;13.63;;;6.00;99.90;;;;;;10004448;29;20197;-78
2020/12/19 10:05:22;;;;;;;18.23;12.87;;;6.10;99.90;;;;;;10003562;29;20208;-78
2020/12/19 10:10:44;;;;;;;18.73;12.77;;;6.30;99.90;;;;;;9989679;29;20236;-82
2020/12/19 10:16:12;;;;;;;19.50;13.37;;;6.50;99.90;;;;;;10002114;29;20280;-79
2020/12/19 10:21:34;;;;;;;19.33;12.70;;;6.60;99.90;;;;;;10010313;23;20308;-75
2020/12/19 10:26:56;;;;;;;17.20;12.93;;;6.90;99.90;;;;;;9974136;29;20224;-78
2020/12/19 10:32:19;;;;;;;16.53;12.20;;;7.10;99.90;;;;;;9969630;29;20244;-75
2020/12/19 10:37:41;;;;;;;15.33;11.90;;;7.10;99.90;;;;;;9963399;29;20224;-75
2020/12/19 10:43:03;;;;;;;15.97;12.10;;;7.20;99.90;;;;;;9974281;29;20236;-74
2020/12/19 10:48:25;;;;;;;14.67;11.80;;;7.40;99.90;;;;;;9976077;29;20238;-73
2020/12/19 10:53:47;;;;;;;15.87;11.63;;;7.60;99.90;;;;;;9977834;29;20711;-74
2020/12/19 10:59:09;;;;;;;27.00;7.30;;;7.60;99.90;;;;;;9977961;29;20208;-88
2020/12/19 11:31:48;;;;;;;5.03;2.47;;;19.90;99.90;;;;;;10527977;27;58398;-48
2020/12/19 11:42:02;;;;;;;4.33;2.20;;;24.30;55.20;;;;;;10490746;27;20525;-49
2020/12/19 11:47:24;;;;;;;3.60;2.00;;;20.80;59.00;;;;;;10400961;28;20697;-51
